sensor_id;sensor_type;location;lat;lon;timestamp;P1;durP1;ratioP1;P2;durP2;ratioP2
15177;SDS011;7689;53.612;-2.416;2022-12-18T00:02:15;0.10;;;0.10;;
15177;SDS011;7689;53.612;-2.416;2022-12-18T00:04:41;1.13;;;0.80;;
15177;SDS011;7689;53.612;-2.416;2022-12-18T00:07:06;0.10;;;0.10;;
15177;SDS011;7689;53.612;-2.416;2022-12-18T00:09:32;0.10;;;0.10;;
15177;SDS011;7689;53.612;-2.416;2022-12-18T00:11:57;0.10;;;0.10;;
15177;SDS011;7689;53.612;-2.416;2022-12-18T00:14:23;0.00;;;0.00;;
15177;SDS011;7689;53.612;-2.416;2022-12-18T00:16:49;0.10;;;0.10;;
15177;SDS011;7689;53.612;-2.416;2022-12-18T00:19:14;0.13;;;0.13;;
15177;SDS011;7689;53.612;-2.416;2022-12-18T00:21:41;6.60;;;1.23;;
15177;SDS011;7689;53.612;-2.416;2022-12-18T00:24:07;0.10;;;0.10;;
15177;SDS011;7689;53.612;-2.416;2022-12-18T00:26:34;0.10;;;0.10;;
15177;SDS011;7689;53.612;-2.416;2022-12-18T00:29:01;0.73;;;0.73;;
15177;SDS011;7689;53.612;-2.416;2022-12-18T00:31:38;0.10;;;0.10;;
15177;SDS011;7689;53.612;-2.416;2022-12-18T00:34:05;0.07;;;0.07;;
15177;SDS011;7689;53.612;-2.416;2022-12-18T00:36:33;0.17;;;0.17;;
15177;SDS011;7689;53.612;-2.416;2022-12-18T00:39:00;0.23;;;0.23;;
15177;SDS011;7689;53.612;-2.416;2022-12-18T00:41:27;0.30;;;0.30;;
15177;SDS011;7689;53.612;-2.416;2022-12-18T00:44:13;0.00;;;0.00;;
15177;SDS011;7689;53.612;-2.416;2022-12-18T00:46:40;0.10;;;0.10;;
15177;SDS011;7689;53.612;-2.416;2022-12-18T00:49:06;0.40;;;0.40;;
15177;SDS011;7689;53.612;-2.416;2022-12-18T00:51:32;0.17;;;0.17;;
15177;SDS011;7689;53.612;-2.416;2022-12-18T00:53:57;0.40;;;0.40;;
15177;SDS011;7689;53.612;-2.416;2022-12-18T00:56:23;0.20;;;0.20;;
15177;SDS011;7689;53.612;-2.416;2022-12-18T00:58:49;0.10;;;0.10;;
15177;SDS011;7689;53.612;-2.416;2022-12-18T01:01:15;0.10;;;0.10;;
15177;SDS011;7689;53.612;-2.416;2022-12-18T01:03:41;0.57;;;0.57;;
15177;SDS011;7689;53.612;-2.416;2022-12-18T01:06:08;0.40;;;0.40;;
15177;SDS011;7689;53.612;-2.416;2022-12-18T01:08:35;0.10;;;0.10;;
15177;SDS011;7689;53.612;-2.416;2022-12-18T01:11:01;0.40;;;0.40;;
15177;SDS011;7689;53.612;-2.416;2022-12-18T01:13:36;1.13;;;1.03;;
15177;SDS011;7689;53.612;-2.416;2022-12-18T01:16:02;0.43;;;0.43;;
15177;SDS011;7689;53.612;-2.416;2022-12-18T01:18:28;0.60;;;0.60;;
15177;SDS011;7689;53.612;-2.416;2022-12-18T01:20:54;2.17;;;2.00;;
15177;SDS011;7689;53.612;-2.416;2022-12-18T01:23:19;0.40;;;0.40;;
15177;SDS011;7689;53.612;-2.416;2022-12-18T01:25:45;0.57;;;0.57;;
15177;SDS011;7689;53.612;-2.416;2022-12-18T01:28:11;0.20;;;0.20;;
15177;SDS011;7689;53.612;-2.416;2022-12-18T01:30:36;0.43;;;0.43;;
15177;SDS011;7689;53.612;-2.416;2022-12-18T01:33:04;0.53;;;0.53;;
15177;SDS011;7689;53.612;-2.416;2022-12-18T01:35:30;0.00;;;0.00;;
15177;SDS011;7689;53.612;-2.416;2022-12-18T01:37:56;0.50;;;0.50;;
15177;SDS011;7689;53.612;-2.416;2022-12-18T01:40:22;0.40;;;0.40;;
15177;SDS011;7689;53.612;-2.416;2022-12-18T01:42:51;0.93;;;0.80;;
15177;SDS011;7689;53.612;-2.416;2022-12-18T01:47:44;0.20;;;0.20;;
15177;SDS011;7689;53.612;-2.416;2022-12-18T01:50:20;0.10;;;0.10;;
15177;SDS011;7689;53.612;-2.416;2022-12-18T01:55:36;0.00;;;0.00;;
15177;SDS011;7689;53.612;-2.416;2022-12-18T01:58:05;0.10;;;0.10;;
15177;SDS011;7689;53.612;-2.416;2022-12-18T02:00:31;0.27;;;0.27;;
15177;SDS011;7689;53.612;-2.416;2022-12-18T02:02:57;0.10;;;0.10;;
15177;SDS011;7689;53.612;-2.416;2022-12-18T02:08:43;0.73;;;0.73;;
15177;SDS011;7689;53.612;-2.416;2022-12-18T02:14:19;0.10;;;0.10;;
15177;SDS011;7689;53.612;-2.416;2022-12-18T02:16:59;0.10;;;0.10;;
15177;SDS011;7689;53.612;-2.416;2022-12-18T02:27:59;0.10;;;0.10;;
15177;SDS011;7689;53.612;-2.416;2022-12-18T02:30:27;0.00;;;0.00;;
15177;SDS011;7689;53.612;-2.416;2022-12-18T02:32:57;0.10;;;0.10;;
15177;SDS011;7689;53.612;-2.416;2022-12-18T02:35:25;0.20;;;0.20;;
15177;SDS011;7689;53.612;-2.416;2022-12-18T02:37:53;0.00;;;0.00;;
15177;SDS011;7689;53.612;-2.416;2022-12-18T02:40:20;0.00;;;0.00;;
15177;SDS011;7689;53.612;-2.416;2022-12-18T02:42:49;0.30;;;0.30;;
15177;SDS011;7689;53.612;-2.416;2022-12-18T02:45:15;0.40;;;0.40;;
15177;SDS011;7689;53.612;-2.416;2022-12-18T02:47:42;0.20;;;0.20;;
15177;SDS011;7689;53.612;-2.416;2022-12-18T02:50:20;0.20;;;0.20;;
15177;SDS011;7689;53.612;-2.416;2022-12-18T02:52:52;0.20;;;0.20;;
15177;SDS011;7689;53.612;-2.416;2022-12-18T03:01:03;0.30;;;0.30;;
15177;SDS011;7689;53.612;-2.416;2022-12-18T03:03:39;0.07;;;0.07;;
15177;SDS011;7689;53.612;-2.416;2022-12-18T03:06:13;0.13;;;0.13;;
15177;SDS011;7689;53.612;-2.416;2022-12-18T03:08:51;0.00;;;0.00;;
15177;SDS011;7689;53.612;-2.416;2022-12-18T03:11:26;0.10;;;0.10;;
15177;SDS011;7689;53.612;-2.416;2022-12-18T03:14:14;0.03;;;0.03;;
15177;SDS011;7689;53.612;-2.416;2022-12-18T03:16:41;0.00;;;0.00;;
15177;SDS011;7689;53.612;-2.416;2022-12-18T03:19:16;0.00;;;0.00;;
15177;SDS011;7689;53.612;-2.416;2022-12-18T03:21:47;0.00;;;0.00;;
15177;SDS011;7689;53.612;-2.416;2022-12-18T03:24:17;0.10;;;0.10;;
15177;SDS011;7689;53.612;-2.416;2022-12-18T03:26:45;0.77;;;0.53;;
15177;SDS011;7689;53.612;-2.416;2022-12-18T03:29:18;0.07;;;0.07;;
15177;SDS011;7689;53.612;-2.416;2022-12-18T03:31:51;0.00;;;0.00;;
15177;SDS011;7689;53.612;-2.416;2022-12-18T03:34:22;0.10;;;0.10;;
15177;SDS011;7689;53.612;-2.416;2022-12-18T03:36:51;0.00;;;0.00;;
15177;SDS011;7689;53.612;-2.416;2022-12-18T03:39:17;0.00;;;0.00;;
15177;SDS011;7689;53.612;-2.416;2022-12-18T03:41:45;0.00;;;0.00;;
15177;SDS011;7689;53.612;-2.416;2022-12-18T03:45:01;0.20;;;0.20;;
15177;SDS011;7689;53.612;-2.416;2022-12-18T03:47:25;0.00;;;0.00;;
15177;SDS011;7689;53.612;-2.416;2022-12-18T03:50:07;0.33;;;0.33;;
15177;SDS011;7689;53.612;-2.416;2022-12-18T03:52:38;0.10;;;0.10;;
15177;SDS011;7689;53.612;-2.416;2022-12-18T03:55:19;0.13;;;0.13;;
15177;SDS011;7689;53.612;-2.416;2022-12-18T03:57:48;0.00;;;0.00;;
15177;SDS011;7689;53.612;-2.416;2022-12-18T04:00:15;1.30;;;0.10;;
15177;SDS011;7689;53.612;-2.416;2022-12-18T04:02:43;0.20;;;0.20;;
15177;SDS011;7689;53.612;-2.416;2022-12-18T04:05:18;0.43;;;0.30;;
15177;SDS011;7689;53.612;-2.416;2022-12-18T04:07:46;0.23;;;0.23;;
15177;SDS011;7689;53.612;-2.416;2022-12-18T04:10:13;0.33;;;0.33;;
15177;SDS011;7689;53.612;-2.416;2022-12-18T04:12:40;0.37;;;0.37;;
15177;SDS011;7689;53.612;-2.416;2022-12-18T04:15:06;0.10;;;0.10;;
15177;SDS011;7689;53.612;-2.416;2022-12-18T04:17:33;0.20;;;0.20;;
15177;SDS011;7689;53.612;-2.416;2022-12-18T04:19:58;0.10;;;0.10;;
15177;SDS011;7689;53.612;-2.416;2022-12-18T04:22:24;0.10;;;0.10;;
15177;SDS011;7689;53.612;-2.416;2022-12-18T04:24:50;0.27;;;0.27;;
15177;SDS011;7689;53.612;-2.416;2022-12-18T04:27:15;0.10;;;0.10;;
15177;SDS011;7689;53.612;-2.416;2022-12-18T04:29:41;0.30;;;0.30;;
15177;SDS011;7689;53.612;-2.416;2022-12-18T04:32:07;0.10;;;0.10;;
15177;SDS011;7689;53.612;-2.416;2022-12-18T04:34:33;1.43;;;1.33;;
15177;SDS011;7689;53.612;-2.416;2022-12-18T04:36:59;0.30;;;0.30;;
15177;SDS011;7689;53.612;-2.416;2022-12-18T04:39:25;0.23;;;0.23;;
15177;SDS011;7689;53.612;-2.416;2022-12-18T04:41:50;0.30;;;0.30;;
15177;SDS011;7689;53.612;-2.416;2022-12-18T04:44:16;0.37;;;0.37;;
15177;SDS011;7689;53.612;-2.416;2022-12-18T04:46:42;0.20;;;0.20;;
15177;SDS011;7689;53.612;-2.416;2022-12-18T04:49:07;0.00;;;0.00;;
15177;SDS011;7689;53.612;-2.416;2022-12-18T04:51:35;0.50;;;0.50;;
15177;SDS011;7689;53.612;-2.416;2022-12-18T04:54:01;0.40;;;0.40;;
15177;SDS011;7689;53.612;-2.416;2022-12-18T04:56:27;0.30;;;0.30;;
15177;SDS011;7689;53.612;-2.416;2022-12-18T04:58:52;0.33;;;0.33;;
15177;SDS011;7689;53.612;-2.416;2022-12-18T05:01:18;0.80;;;0.80;;
15177;SDS011;7689;53.612;-2.416;2022-12-18T05:03:43;0.23;;;0.23;;
15177;SDS011;7689;53.612;-2.416;2022-12-18T05:06:09;0.40;;;0.40;;
15177;SDS011;7689;53.612;-2.416;2022-12-18T05:08:35;0.87;;;0.87;;
15177;SDS011;7689;53.612;-2.416;2022-12-18T05:11:05;0.53;;;0.53;;
15177;SDS011;7689;53.612;-2.416;2022-12-18T05:13:33;0.40;;;0.40;;
15177;SDS011;7689;53.612;-2.416;2022-12-18T05:15:59;0.27;;;0.27;;
15177;SDS011;7689;53.612;-2.416;2022-12-18T05:18:25;0.20;;;0.20;;
15177;SDS011;7689;53.612;-2.416;2022-12-18T05:20:51;0.20;;;0.20;;
15177;SDS011;7689;53.612;-2.416;2022-12-18T05:23:18;0.37;;;0.37;;
15177;SDS011;7689;53.612;-2.416;2022-12-18T05:25:55;0.27;;;0.27;;
15177;SDS011;7689;53.612;-2.416;2022-12-18T05:28:25;8.10;;;0.57;;
15177;SDS011;7689;53.612;-2.416;2022-12-18T05:30:53;1.60;;;0.53;;
15177;SDS011;7689;53.612;-2.416;2022-12-18T05:33:21;2.00;;;0.53;;
15177;SDS011;7689;53.612;-2.416;2022-12-18T05:35:51;0.40;;;0.40;;
15177;SDS011;7689;53.612;-2.416;2022-12-18T05:38:25;0.83;;;0.83;;
15177;SDS011;7689;53.612;-2.416;2022-12-18T05:40:51;1.50;;;1.13;;
15177;SDS011;7689;53.612;-2.416;2022-12-18T05:43:18;0.73;;;0.73;;
15177;SDS011;7689;53.612;-2.416;2022-12-18T05:45:46;1.17;;;1.17;;
15177;SDS011;7689;53.612;-2.416;2022-12-18T05:48:12;0.70;;;0.70;;
15177;SDS011;7689;53.612;-2.416;2022-12-18T05:50:38;0.43;;;0.43;;
15177;SDS011;7689;53.612;-2.416;2022-12-18T05:53:05;1.27;;;1.17;;
15177;SDS011;7689;53.612;-2.416;2022-12-18T05:55:37;0.63;;;0.40;;
15177;SDS011;7689;53.612;-2.416;2022-12-18T05:58:05;1.00;;;0.90;;
15177;SDS011;7689;53.612;-2.416;2022-12-18T06:00:31;1.07;;;0.93;;
15177;SDS011;7689;53.612;-2.416;2022-12-18T06:02:59;0.77;;;0.77;;
15177;SDS011;7689;53.612;-2.416;2022-12-18T06:05:25;0.27;;;0.27;;
15177;SDS011;7689;53.612;-2.416;2022-12-18T06:07:51;0.87;;;0.87;;
15177;SDS011;7689;53.612;-2.416;2022-12-18T06:10:17;0.47;;;0.47;;
15177;SDS011;7689;53.612;-2.416;2022-12-18T06:12:43;0.90;;;0.90;;
15177;SDS011;7689;53.612;-2.416;2022-12-18T06:15:09;0.80;;;0.80;;
15177;SDS011;7689;53.612;-2.416;2022-12-18T06:17:36;1.60;;;1.27;;
15177;SDS011;7689;53.612;-2.416;2022-12-18T06:20:02;0.40;;;0.40;;
15177;SDS011;7689;53.612;-2.416;2022-12-18T06:22:30;0.10;;;0.10;;
15177;SDS011;7689;53.612;-2.416;2022-12-18T06:24:56;1.10;;;1.10;;
15177;SDS011;7689;53.612;-2.416;2022-12-18T06:27:22;0.60;;;0.60;;
15177;SDS011;7689;53.612;-2.416;2022-12-18T06:29:48;4.57;;;2.23;;
15177;SDS011;7689;53.612;-2.416;2022-12-18T06:32:14;1.73;;;1.63;;
15177;SDS011;7689;53.612;-2.416;2022-12-18T06:34:40;0.87;;;0.87;;
15177;SDS011;7689;53.612;-2.416;2022-12-18T06:37:06;0.97;;;0.97;;
15177;SDS011;7689;53.612;-2.416;2022-12-18T06:39:31;0.13;;;0.13;;
15177;SDS011;7689;53.612;-2.416;2022-12-18T06:41:57;0.83;;;0.80;;
15177;SDS011;7689;53.612;-2.416;2022-12-18T06:44:22;0.70;;;0.70;;
15177;SDS011;7689;53.612;-2.416;2022-12-18T06:46:48;1.97;;;0.97;;
15177;SDS011;7689;53.612;-2.416;2022-12-18T06:49:14;3.63;;;1.07;;
15177;SDS011;7689;53.612;-2.416;2022-12-18T06:51:40;0.57;;;0.57;;
15177;SDS011;7689;53.612;-2.416;2022-12-18T06:54:07;0.70;;;0.70;;
15177;SDS011;7689;53.612;-2.416;2022-12-18T06:56:32;1.13;;;1.10;;
15177;SDS011;7689;53.612;-2.416;2022-12-18T06:58:58;1.10;;;1.00;;
15177;SDS011;7689;53.612;-2.416;2022-12-18T07:01:24;1.07;;;1.07;;
15177;SDS011;7689;53.612;-2.416;2022-12-18T07:03:53;1.60;;;1.40;;
15177;SDS011;7689;53.612;-2.416;2022-12-18T07:06:20;1.63;;;1.53;;
15177;SDS011;7689;53.612;-2.416;2022-12-18T07:08:47;0.43;;;0.43;;
15177;SDS011;7689;53.612;-2.416;2022-12-18T07:11:14;3.17;;;2.03;;
15177;SDS011;7689;53.612;-2.416;2022-12-18T07:13:41;1.27;;;1.23;;
15177;SDS011;7689;53.612;-2.416;2022-12-18T07:16:11;0.87;;;0.87;;
15177;SDS011;7689;53.612;-2.416;2022-12-18T07:18:41;0.60;;;0.60;;
15177;SDS011;7689;53.612;-2.416;2022-12-18T07:21:07;0.27;;;0.27;;
15177;SDS011;7689;53.612;-2.416;2022-12-18T07:23:35;1.80;;;1.70;;
15177;SDS011;7689;53.612;-2.416;2022-12-18T07:26:04;0.50;;;0.50;;
15177;SDS011;7689;53.612;-2.416;2022-12-18T07:28:35;4.03;;;2.03;;
15177;SDS011;7689;53.612;-2.416;2022-12-18T07:31:05;2.00;;;0.23;;
15177;SDS011;7689;53.612;-2.416;2022-12-18T07:33:33;1.03;;;1.03;;
15177;SDS011;7689;53.612;-2.416;2022-12-18T07:36:01;0.10;;;0.10;;
15177;SDS011;7689;53.612;-2.416;2022-12-18T07:38:29;0.27;;;0.27;;
15177;SDS011;7689;53.612;-2.416;2022-12-18T07:41:00;0.50;;;0.50;;
15177;SDS011;7689;53.612;-2.416;2022-12-18T07:43:26;1.07;;;1.07;;
15177;SDS011;7689;53.612;-2.416;2022-12-18T07:45:52;0.20;;;0.20;;
15177;SDS011;7689;53.612;-2.416;2022-12-18T07:48:17;2.53;;;1.43;;
15177;SDS011;7689;53.612;-2.416;2022-12-18T07:50:43;1.10;;;1.07;;
15177;SDS011;7689;53.612;-2.416;2022-12-18T07:53:09;2.03;;;1.93;;
15177;SDS011;7689;53.612;-2.416;2022-12-18T07:55:34;1.07;;;1.07;;
15177;SDS011;7689;53.612;-2.416;2022-12-18T07:58:01;1.03;;;1.03;;
15177;SDS011;7689;53.612;-2.416;2022-12-18T08:00:27;0.03;;;0.03;;
15177;SDS011;7689;53.612;-2.416;2022-12-18T08:02:53;1.30;;;1.30;;
15177;SDS011;7689;53.612;-2.416;2022-12-18T08:05:19;0.30;;;0.30;;
15177;SDS011;7689;53.612;-2.416;2022-12-18T08:07:45;0.73;;;0.20;;
15177;SDS011;7689;53.612;-2.416;2022-12-18T08:10:11;0.50;;;0.50;;
15177;SDS011;7689;53.612;-2.416;2022-12-18T08:12:37;1.33;;;0.97;;
15177;SDS011;7689;53.612;-2.416;2022-12-18T08:15:03;0.50;;;0.50;;
15177;SDS011;7689;53.612;-2.416;2022-12-18T08:17:29;0.67;;;0.67;;
15177;SDS011;7689;53.612;-2.416;2022-12-18T08:19:55;0.40;;;0.40;;
15177;SDS011;7689;53.612;-2.416;2022-12-18T08:22:20;0.20;;;0.20;;
15177;SDS011;7689;53.612;-2.416;2022-12-18T08:24:46;0.30;;;0.30;;
15177;SDS011;7689;53.612;-2.416;2022-12-18T08:27:12;1.43;;;1.43;;
15177;SDS011;7689;53.612;-2.416;2022-12-18T08:29:37;1.90;;;1.80;;
15177;SDS011;7689;53.612;-2.416;2022-12-18T08:32:03;0.57;;;0.57;;
15177;SDS011;7689;53.612;-2.416;2022-12-18T08:34:29;1.53;;;1.43;;
15177;SDS011;7689;53.612;-2.416;2022-12-18T08:36:55;1.73;;;1.63;;
15177;SDS011;7689;53.612;-2.416;2022-12-18T08:39:20;6.07;;;3.43;;
15177;SDS011;7689;53.612;-2.416;2022-12-18T08:41:46;8.83;;;3.03;;
15177;SDS011;7689;53.612;-2.416;2022-12-18T08:44:32;1.53;;;1.33;;
15177;SDS011;7689;53.612;-2.416;2022-12-18T08:47:03;1.30;;;1.20;;
15177;SDS011;7689;53.612;-2.416;2022-12-18T08:49:33;2.67;;;2.07;;
15177;SDS011;7689;53.612;-2.416;2022-12-18T08:51:59;1.30;;;0.97;;
15177;SDS011;7689;53.612;-2.416;2022-12-18T08:54:26;2.47;;;2.37;;
15177;SDS011;7689;53.612;-2.416;2022-12-18T08:56:51;1.77;;;1.67;;
15177;SDS011;7689;53.612;-2.416;2022-12-18T08:59:17;4.73;;;2.47;;
15177;SDS011;7689;53.612;-2.416;2022-12-18T09:01:43;1.87;;;1.77;;
15177;SDS011;7689;53.612;-2.416;2022-12-18T09:04:10;1.53;;;1.43;;
15177;SDS011;7689;53.612;-2.416;2022-12-18T09:06:35;4.10;;;2.77;;
15177;SDS011;7689;53.612;-2.416;2022-12-18T09:09:02;2.27;;;2.10;;
15177;SDS011;7689;53.612;-2.416;2022-12-18T09:11:29;3.97;;;2.73;;
15177;SDS011;7689;53.612;-2.416;2022-12-18T09:13:56;2.90;;;2.67;;
15177;SDS011;7689;53.612;-2.416;2022-12-18T09:16:22;4.43;;;2.83;;
15177;SDS011;7689;53.612;-2.416;2022-12-18T09:18:49;2.07;;;1.97;;
15177;SDS011;7689;53.612;-2.416;2022-12-18T09:21:16;3.37;;;2.97;;
15177;SDS011;7689;53.612;-2.416;2022-12-18T09:23:43;2.57;;;2.37;;
15177;SDS011;7689;53.612;-2.416;2022-12-18T09:26:09;2.20;;;2.10;;
15177;SDS011;7689;53.612;-2.416;2022-12-18T09:28:35;3.97;;;3.67;;
15177;SDS011;7689;53.612;-2.416;2022-12-18T09:31:04;3.50;;;3.20;;
15177;SDS011;7689;53.612;-2.416;2022-12-18T09:33:32;7.10;;;4.40;;
15177;SDS011;7689;53.612;-2.416;2022-12-18T09:36:00;5.27;;;3.60;;
15177;SDS011;7689;53.612;-2.416;2022-12-18T09:38:27;4.37;;;2.17;;
15177;SDS011;7689;53.612;-2.416;2022-12-18T09:40:53;3.60;;;3.30;;
15177;SDS011;7689;53.612;-2.416;2022-12-18T09:43:29;2.37;;;1.90;;
15177;SDS011;7689;53.612;-2.416;2022-12-18T09:46:09;4.43;;;3.40;;
15177;SDS011;7689;53.612;-2.416;2022-12-18T09:48:41;1.20;;;1.20;;
15177;SDS011;7689;53.612;-2.416;2022-12-18T09:53:51;2.90;;;2.67;;
15177;SDS011;7689;53.612;-2.416;2022-12-18T09:56:33;1.77;;;1.67;;
15177;SDS011;7689;53.612;-2.416;2022-12-18T09:59:02;1.20;;;0.90;;
15177;SDS011;7689;53.612;-2.416;2022-12-18T10:01:30;3.03;;;2.50;;
15177;SDS011;7689;53.612;-2.416;2022-12-18T10:03:57;3.33;;;2.87;;
15177;SDS011;7689;53.612;-2.416;2022-12-18T10:06:29;4.77;;;3.50;;
15177;SDS011;7689;53.612;-2.416;2022-12-18T10:19:52;4.53;;;2.70;;
15177;SDS011;7689;53.612;-2.416;2022-12-18T10:27:29;4.63;;;3.10;;
15177;SDS011;7689;53.612;-2.416;2022-12-18T10:29:56;8.63;;;3.07;;
15177;SDS011;7689;53.612;-2.416;2022-12-18T10:32:27;6.43;;;4.20;;
15177;SDS011;7689;53.612;-2.416;2022-12-18T10:34:55;4.23;;;3.40;;
15177;SDS011;7689;53.612;-2.416;2022-12-18T10:37:23;2.83;;;2.63;;
15177;SDS011;7689;53.612;-2.416;2022-12-18T10:40:08;3.27;;;3.07;;
15177;SDS011;7689;53.612;-2.416;2022-12-18T10:42:38;2.47;;;2.03;;
15177;SDS011;7689;53.612;-2.416;2022-12-18T10:45:09;1.60;;;1.60;;
15177;SDS011;7689;53.612;-2.416;2022-12-18T10:47:41;5.30;;;3.73;;
15177;SDS011;7689;53.612;-2.416;2022-12-18T10:50:19;6.10;;;3.47;;
15177;SDS011;7689;53.612;-2.416;2022-12-18T10:52:55;3.10;;;2.47;;
15177;SDS011;7689;53.612;-2.416;2022-12-18T10:55:23;3.80;;;3.50;;
15177;SDS011;7689;53.612;-2.416;2022-12-18T10:58:13;4.20;;;2.97;;
15177;SDS011;7689;53.612;-2.416;2022-12-18T11:01:00;3.63;;;2.53;;
15177;SDS011;7689;53.612;-2.416;2022-12-18T11:03:58;3.40;;;3.20;;
15177;SDS011;7689;53.612;-2.416;2022-12-18T11:06:26;1.50;;;1.50;;
15177;SDS011;7689;53.612;-2.416;2022-12-18T11:09:06;1.93;;;1.60;;
15177;SDS011;7689;53.612;-2.416;2022-12-18T11:12:04;1.77;;;1.67;;
15177;SDS011;7689;53.612;-2.416;2022-12-18T11:14:49;2.40;;;2.17;;
15177;SDS011;7689;53.612;-2.416;2022-12-18T11:17:19;3.13;;;2.90;;
15177;SDS011;7689;53.612;-2.416;2022-12-18T11:20:00;1.13;;;1.10;;
15177;SDS011;7689;53.612;-2.416;2022-12-18T11:22:32;1.10;;;0.67;;
15177;SDS011;7689;53.612;-2.416;2022-12-18T11:25:00;6.33;;;1.80;;
15177;SDS011;7689;53.612;-2.416;2022-12-18T11:27:31;3.50;;;2.57;;
15177;SDS011;7689;53.612;-2.416;2022-12-18T11:30:08;1.37;;;1.27;;
15177;SDS011;7689;53.612;-2.416;2022-12-18T11:32:36;1.43;;;1.33;;
15177;SDS011;7689;53.612;-2.416;2022-12-18T11:37:59;1.60;;;1.50;;
15177;SDS011;7689;53.612;-2.416;2022-12-18T11:40:37;1.67;;;1.60;;
15177;SDS011;7689;53.612;-2.416;2022-12-18T11:43:09;1.83;;;1.73;;
15177;SDS011;7689;53.612;-2.416;2022-12-18T11:45:45;0.33;;;0.33;;
15177;SDS011;7689;53.612;-2.416;2022-12-18T11:50:55;3.20;;;3.00;;
15177;SDS011;7689;53.612;-2.416;2022-12-18T11:53:23;6.43;;;2.87;;
15177;SDS011;7689;53.612;-2.416;2022-12-18T11:56:11;3.00;;;2.50;;
15177;SDS011;7689;53.612;-2.416;2022-12-18T11:59:15;3.37;;;3.07;;
15177;SDS011;7689;53.612;-2.416;2022-12-18T12:01:59;3.93;;;2.57;;
15177;SDS011;7689;53.612;-2.416;2022-12-18T12:21:42;6.07;;;3.30;;
15177;SDS011;7689;53.612;-2.416;2022-12-18T12:24:21;2.30;;;2.20;;
15177;SDS011;7689;53.612;-2.416;2022-12-18T12:27:18;1.60;;;1.50;;
15177;SDS011;7689;53.612;-2.416;2022-12-18T12:40:31;0.83;;;0.83;;
15177;SDS011;7689;53.612;-2.416;2022-12-18T12:43:05;4.10;;;3.00;;
15177;SDS011;7689;53.612;-2.416;2022-12-18T12:46:09;6.17;;;1.27;;
15177;SDS011;7689;53.612;-2.416;2022-12-18T12:51:16;1.63;;;1.47;;
15177;SDS011;7689;53.612;-2.416;2022-12-18T12:53:44;4.23;;;3.83;;
15177;SDS011;7689;53.612;-2.416;2022-12-18T12:56:11;4.97;;;3.07;;
15177;SDS011;7689;53.612;-2.416;2022-12-18T12:58:49;5.07;;;2.37;;
15177;SDS011;7689;53.612;-2.416;2022-12-18T13:01:37;2.00;;;1.90;;
15177;SDS011;7689;53.612;-2.416;2022-12-18T13:04:22;4.00;;;2.50;;
15177;SDS011;7689;53.612;-2.416;2022-12-18T13:07:01;1.73;;;1.63;;
15177;SDS011;7689;53.612;-2.416;2022-12-18T13:20:42;1.20;;;1.20;;
15177;SDS011;7689;53.612;-2.416;2022-12-18T13:36:45;1.73;;;1.63;;
15177;SDS011;7689;53.612;-2.416;2022-12-18T13:41:42;2.00;;;1.90;;
15177;SDS011;7689;53.612;-2.416;2022-12-18T13:44:24;0.60;;;0.60;;
15177;SDS011;7689;53.612;-2.416;2022-12-18T13:46:50;2.80;;;2.60;;
15177;SDS011;7689;53.612;-2.416;2022-12-18T13:51:52;1.43;;;1.33;;
15177;SDS011;7689;53.612;-2.416;2022-12-18T13:54:22;3.53;;;2.13;;
15177;SDS011;7689;53.612;-2.416;2022-12-18T13:56:59;1.80;;;1.70;;
15177;SDS011;7689;53.612;-2.416;2022-12-18T13:59:25;2.53;;;1.60;;
15177;SDS011;7689;53.612;-2.416;2022-12-18T14:02:07;6.77;;;3.37;;
15177;SDS011;7689;53.612;-2.416;2022-12-18T14:04:44;1.70;;;1.60;;
15177;SDS011;7689;53.612;-2.416;2022-12-18T14:10:00;6.87;;;2.33;;
15177;SDS011;7689;53.612;-2.416;2022-12-18T14:12:31;0.97;;;0.97;;
15177;SDS011;7689;53.612;-2.416;2022-12-18T14:15:22;2.30;;;2.20;;
15177;SDS011;7689;53.612;-2.416;2022-12-18T14:20:54;4.23;;;2.57;;
15177;SDS011;7689;53.612;-2.416;2022-12-18T14:23:33;1.37;;;1.37;;
15177;SDS011;7689;53.612;-2.416;2022-12-18T14:25:59;3.20;;;2.63;;
15177;SDS011;7689;53.612;-2.416;2022-12-18T14:28:26;1.80;;;1.70;;
15177;SDS011;7689;53.612;-2.416;2022-12-18T14:30:52;2.03;;;1.97;;
15177;SDS011;7689;53.612;-2.416;2022-12-18T14:33:20;3.80;;;2.63;;
15177;SDS011;7689;53.612;-2.416;2022-12-18T14:35:58;2.67;;;2.47;;
15177;SDS011;7689;53.612;-2.416;2022-12-18T14:38:30;3.27;;;2.97;;
15177;SDS011;7689;53.612;-2.416;2022-12-18T14:41:04;2.40;;;2.20;;
15177;SDS011;7689;53.612;-2.416;2022-12-18T14:43:32;2.10;;;2.00;;
15177;SDS011;7689;53.612;-2.416;2022-12-18T14:45:59;4.17;;;3.23;;
15177;SDS011;7689;53.612;-2.416;2022-12-18T14:48:39;3.17;;;2.23;;
15177;SDS011;7689;53.612;-2.416;2022-12-18T14:51:13;9.07;;;2.60;;
15177;SDS011;7689;53.612;-2.416;2022-12-18T14:54:06;1.20;;;1.20;;
15177;SDS011;7689;53.612;-2.416;2022-12-18T14:56:48;4.57;;;3.07;;
15177;SDS011;7689;53.612;-2.416;2022-12-18T14:59:26;6.90;;;2.10;;
15177;SDS011;7689;53.612;-2.416;2022-12-18T15:04:34;1.07;;;0.87;;
15177;SDS011;7689;53.612;-2.416;2022-12-18T15:07:23;1.33;;;1.23;;
15177;SDS011;7689;53.612;-2.416;2022-12-18T15:20:38;1.70;;;1.60;;
15177;SDS011;7689;53.612;-2.416;2022-12-18T15:23:05;1.03;;;1.03;;
15177;SDS011;7689;53.612;-2.416;2022-12-18T15:25:37;1.87;;;1.70;;
15177;SDS011;7689;53.612;-2.416;2022-12-18T15:28:04;2.43;;;2.30;;
15177;SDS011;7689;53.612;-2.416;2022-12-18T15:30:57;1.67;;;1.57;;
15177;SDS011;7689;53.612;-2.416;2022-12-18T15:33:25;0.87;;;0.87;;
15177;SDS011;7689;53.612;-2.416;2022-12-18T15:36:04;1.73;;;1.63;;
15177;SDS011;7689;53.612;-2.416;2022-12-18T15:38:34;1.07;;;1.07;;
15177;SDS011;7689;53.612;-2.416;2022-12-18T15:40:59;3.10;;;1.70;;
15177;SDS011;7689;53.612;-2.416;2022-12-18T15:43:26;2.13;;;1.40;;
15177;SDS011;7689;53.612;-2.416;2022-12-18T15:46:11;2.33;;;1.77;;
15177;SDS011;7689;53.612;-2.416;2022-12-18T15:48:42;2.03;;;1.07;;
15177;SDS011;7689;53.612;-2.416;2022-12-18T15:54:18;0.90;;;0.87;;
15177;SDS011;7689;53.612;-2.416;2022-12-18T15:57:07;0.83;;;0.83;;
15177;SDS011;7689;53.612;-2.416;2022-12-18T15:59:51;0.93;;;0.93;;
15177;SDS011;7689;53.612;-2.416;2022-12-18T16:02:18;0.13;;;0.13;;
15177;SDS011;7689;53.612;-2.416;2022-12-18T16:04:45;1.87;;;1.77;;
15177;SDS011;7689;53.612;-2.416;2022-12-18T16:07:11;0.67;;;0.67;;
15177;SDS011;7689;53.612;-2.416;2022-12-18T16:09:37;1.43;;;1.23;;
15177;SDS011;7689;53.612;-2.416;2022-12-18T16:12:03;1.63;;;1.40;;
15177;SDS011;7689;53.612;-2.416;2022-12-18T16:14:30;0.83;;;0.83;;
15177;SDS011;7689;53.612;-2.416;2022-12-18T16:16:58;1.13;;;1.00;;
15177;SDS011;7689;53.612;-2.416;2022-12-18T16:19:25;2.20;;;0.80;;
15177;SDS011;7689;53.612;-2.416;2022-12-18T16:21:52;2.07;;;1.97;;
15177;SDS011;7689;53.612;-2.416;2022-12-18T16:24:21;1.07;;;1.07;;
15177;SDS011;7689;53.612;-2.416;2022-12-18T16:26:56;0.93;;;0.93;;
15177;SDS011;7689;53.612;-2.416;2022-12-18T16:29:24;0.37;;;0.37;;
15177;SDS011;7689;53.612;-2.416;2022-12-18T16:31:52;0.10;;;0.10;;
15177;SDS011;7689;53.612;-2.416;2022-12-18T16:34:22;1.13;;;1.13;;
15177;SDS011;7689;53.612;-2.416;2022-12-18T16:36:56;1.00;;;1.00;;
15177;SDS011;7689;53.612;-2.416;2022-12-18T16:39:26;0.50;;;0.27;;
15177;SDS011;7689;53.612;-2.416;2022-12-18T16:41:53;0.97;;;0.97;;
15177;SDS011;7689;53.612;-2.416;2022-12-18T16:44:19;1.13;;;1.10;;
15177;SDS011;7689;53.612;-2.416;2022-12-18T16:46:45;0.50;;;0.50;;
15177;SDS011;7689;53.612;-2.416;2022-12-18T16:49:11;1.20;;;1.20;;
15177;SDS011;7689;53.612;-2.416;2022-12-18T16:51:38;0.73;;;0.70;;
15177;SDS011;7689;53.612;-2.416;2022-12-18T16:54:04;0.60;;;0.60;;
15177;SDS011;7689;53.612;-2.416;2022-12-18T16:56:30;0.43;;;0.43;;
15177;SDS011;7689;53.612;-2.416;2022-12-18T16:58:57;2.17;;;1.50;;
15177;SDS011;7689;53.612;-2.416;2022-12-18T17:01:25;0.20;;;0.20;;
15177;SDS011;7689;53.612;-2.416;2022-12-18T17:03:54;5.87;;;1.67;;
15177;SDS011;7689;53.612;-2.416;2022-12-18T17:06:21;0.20;;;0.20;;
15177;SDS011;7689;53.612;-2.416;2022-12-18T17:08:52;0.77;;;0.77;;
15177;SDS011;7689;53.612;-2.416;2022-12-18T17:11:27;0.70;;;0.70;;
15177;SDS011;7689;53.612;-2.416;2022-12-18T17:13:54;0.30;;;0.30;;
15177;SDS011;7689;53.612;-2.416;2022-12-18T17:16:20;0.73;;;0.73;;
15177;SDS011;7689;53.612;-2.416;2022-12-18T17:18:46;0.20;;;0.20;;